sensor_id;sensor_type;location;lat;lon;timestamp;P1;durP1;ratioP1;P2;durP2;ratioP2
13163;SDS011;6647;53.688;10.746;2024-01-30T00:00:50;6.73;;;5.13;;
13163;SDS011;6647;53.688;10.746;2024-01-30T00:01:51;8.37;;;6.30;;
13163;SDS011;6647;53.688;10.746;2024-01-30T00:02:51;8.93;;;5.90;;
13163;SDS011;6647;53.688;10.746;2024-01-30T00:03:52;7.60;;;5.85;;
13163;SDS011;6647;53.688;10.746;2024-01-30T00:04:54;6.43;;;5.28;;
13163;SDS011;6647;53.688;10.746;2024-01-30T00:05:54;8.30;;;5.30;;
13163;SDS011;6647;53.688;10.746;2024-01-30T00:06:54;7.23;;;5.70;;
13163;SDS011;6647;53.688;10.746;2024-01-30T00:07:55;6.70;;;5.80;;
13163;SDS011;6647;53.688;10.746;2024-01-30T00:08:55;7.30;;;5.60;;
13163;SDS011;6647;53.688;10.746;2024-01-30T00:09:55;8.40;;;5.90;;
13163;SDS011;6647;53.688;10.746;2024-01-30T00:10:56;9.32;;;5.13;;
13163;SDS011;6647;53.688;10.746;2024-01-30T00:11:57;9.60;;;6.13;;
13163;SDS011;6647;53.688;10.746;2024-01-30T00:12:59;8.00;;;5.55;;
13163;SDS011;6647;53.688;10.746;2024-01-30T00:14:01;7.47;;;5.88;;
13163;SDS011;6647;53.688;10.746;2024-01-30T00:15:03;10.18;;;6.13;;
13163;SDS011;6647;53.688;10.746;2024-01-30T00:16:05;10.32;;;6.07;;
13163;SDS011;6647;53.688;10.746;2024-01-30T00:17:06;9.45;;;6.00;;
13163;SDS011;6647;53.688;10.746;2024-01-30T00:18:07;7.67;;;5.70;;
13163;SDS011;6647;53.688;10.746;2024-01-30T00:19:08;8.18;;;6.18;;
13163;SDS011;6647;53.688;10.746;2024-01-30T00:20:09;7.03;;;5.80;;
13163;SDS011;6647;53.688;10.746;2024-01-30T00:21:11;8.65;;;6.53;;
13163;SDS011;6647;53.688;10.746;2024-01-30T00:22:11;9.10;;;5.80;;
13163;SDS011;6647;53.688;10.746;2024-01-30T00:23:12;10.30;;;6.43;;
13163;SDS011;6647;53.688;10.746;2024-01-30T00:24:12;10.00;;;6.70;;
13163;SDS011;6647;53.688;10.746;2024-01-30T00:25:13;8.40;;;5.97;;
13163;SDS011;6647;53.688;10.746;2024-01-30T00:26:13;7.80;;;5.67;;
13163;SDS011;6647;53.688;10.746;2024-01-30T00:27:14;13.13;;;6.07;;
13163;SDS011;6647;53.688;10.746;2024-01-30T00:28:15;10.10;;;6.23;;
13163;SDS011;6647;53.688;10.746;2024-01-30T00:29:15;8.60;;;5.63;;
13163;SDS011;6647;53.688;10.746;2024-01-30T00:30:20;7.40;;;6.10;;
13163;SDS011;6647;53.688;10.746;2024-01-30T00:31:21;8.40;;;6.00;;
13163;SDS011;6647;53.688;10.746;2024-01-30T00:32:22;10.17;;;6.10;;
13163;SDS011;6647;53.688;10.746;2024-01-30T00:33:23;10.55;;;6.40;;
13163;SDS011;6647;53.688;10.746;2024-01-30T00:34:25;7.70;;;5.70;;
13163;SDS011;6647;53.688;10.746;2024-01-30T00:35:26;8.98;;;6.35;;
13163;SDS011;6647;53.688;10.746;2024-01-30T00:36:27;9.48;;;6.13;;
13163;SDS011;6647;53.688;10.746;2024-01-30T00:37:31;8.23;;;6.55;;
13163;SDS011;6647;53.688;10.746;2024-01-30T00:38:32;6.90;;;5.97;;
13163;SDS011;6647;53.688;10.746;2024-01-30T00:39:33;7.47;;;5.85;;
13163;SDS011;6647;53.688;10.746;2024-01-30T00:40:33;10.70;;;5.80;;
13163;SDS011;6647;53.688;10.746;2024-01-30T00:41:35;7.47;;;5.95;;
13163;SDS011;6647;53.688;10.746;2024-01-30T00:42:35;8.00;;;6.00;;
13163;SDS011;6647;53.688;10.746;2024-01-30T00:43:36;7.10;;;6.07;;
13163;SDS011;6647;53.688;10.746;2024-01-30T00:44:36;9.77;;;5.83;;
13163;SDS011;6647;53.688;10.746;2024-01-30T00:45:39;8.57;;;6.72;;
13163;SDS011;6647;53.688;10.746;2024-01-30T00:46:41;9.65;;;6.20;;
13163;SDS011;6647;53.688;10.746;2024-01-30T00:47:42;7.13;;;5.67;;
13163;SDS011;6647;53.688;10.746;2024-01-30T00:48:42;10.63;;;5.88;;
13163;SDS011;6647;53.688;10.746;2024-01-30T00:49:43;9.50;;;7.00;;
13163;SDS011;6647;53.688;10.746;2024-01-30T00:50:43;9.50;;;6.10;;
13163;SDS011;6647;53.688;10.746;2024-01-30T00:51:43;11.17;;;6.17;;
13163;SDS011;6647;53.688;10.746;2024-01-30T00:52:44;8.43;;;5.80;;
13163;SDS011;6647;53.688;10.746;2024-01-30T00:53:45;7.27;;;6.37;;
13163;SDS011;6647;53.688;10.746;2024-01-30T00:54:45;7.67;;;5.83;;
13163;SDS011;6647;53.688;10.746;2024-01-30T00:55:45;8.50;;;5.80;;
13163;SDS011;6647;53.688;10.746;2024-01-30T00:56:46;8.07;;;6.50;;
13163;SDS011;6647;53.688;10.746;2024-01-30T00:57:47;9.05;;;5.63;;
13163;SDS011;6647;53.688;10.746;2024-01-30T00:58:47;10.90;;;6.50;;
13163;SDS011;6647;53.688;10.746;2024-01-30T00:59:49;7.63;;;5.72;;
13163;SDS011;6647;53.688;10.746;2024-01-30T01:00:51;13.18;;;5.80;;
13163;SDS011;6647;53.688;10.746;2024-01-30T01:01:53;5.68;;;5.07;;
13163;SDS011;6647;53.688;10.746;2024-01-30T01:02:55;11.52;;;7.10;;
13163;SDS011;6647;53.688;10.746;2024-01-30T01:03:57;7.35;;;5.70;;
13163;SDS011;6647;53.688;10.746;2024-01-30T01:04:59;7.38;;;5.65;;
13163;SDS011;6647;53.688;10.746;2024-01-30T01:06:01;10.23;;;5.88;;
13163;SDS011;6647;53.688;10.746;2024-01-30T01:07:03;8.45;;;6.20;;
13163;SDS011;6647;53.688;10.746;2024-01-30T01:08:05;11.95;;;6.47;;
13163;SDS011;6647;53.688;10.746;2024-01-30T01:09:07;11.65;;;6.32;;
13163;SDS011;6647;53.688;10.746;2024-01-30T01:10:07;8.07;;;5.53;;
13163;SDS011;6647;53.688;10.746;2024-01-30T01:11:08;12.00;;;6.43;;
13163;SDS011;6647;53.688;10.746;2024-01-30T01:12:09;9.33;;;6.47;;
13163;SDS011;6647;53.688;10.746;2024-01-30T01:13:09;7.77;;;6.23;;
13163;SDS011;6647;53.688;10.746;2024-01-30T01:14:10;9.70;;;6.37;;
13163;SDS011;6647;53.688;10.746;2024-01-30T01:15:10;8.40;;;6.20;;
13163;SDS011;6647;53.688;10.746;2024-01-30T01:16:11;9.77;;;6.90;;
13163;SDS011;6647;53.688;10.746;2024-01-30T01:17:11;8.83;;;6.80;;
13163;SDS011;6647;53.688;10.746;2024-01-30T01:18:12;9.00;;;6.20;;
13163;SDS011;6647;53.688;10.746;2024-01-30T01:19:12;10.23;;;7.07;;
13163;SDS011;6647;53.688;10.746;2024-01-30T01:20:12;7.33;;;5.77;;
13163;SDS011;6647;53.688;10.746;2024-01-30T01:21:13;7.37;;;6.20;;
13163;SDS011;6647;53.688;10.746;2024-01-30T01:22:13;11.63;;;6.43;;
13163;SDS011;6647;53.688;10.746;2024-01-30T01:23:13;11.40;;;6.50;;
13163;SDS011;6647;53.688;10.746;2024-01-30T01:24:14;7.87;;;6.20;;
13163;SDS011;6647;53.688;10.746;2024-01-30T01:25:14;9.97;;;6.87;;
13163;SDS011;6647;53.688;10.746;2024-01-30T01:26:15;9.87;;;6.60;;
13163;SDS011;6647;53.688;10.746;2024-01-30T01:27:15;9.10;;;6.50;;
13163;SDS011;6647;53.688;10.746;2024-01-30T01:28:16;10.33;;;7.20;;
13163;SDS011;6647;53.688;10.746;2024-01-30T01:29:16;11.33;;;6.73;;
13163;SDS011;6647;53.688;10.746;2024-01-30T01:30:17;10.67;;;5.90;;
13163;SDS011;6647;53.688;10.746;2024-01-30T01:31:25;8.40;;;6.47;;
13163;SDS011;6647;53.688;10.746;2024-01-30T01:32:30;9.80;;;5.80;;
13163;SDS011;6647;53.688;10.746;2024-01-30T01:33:31;7.60;;;5.63;;
13163;SDS011;6647;53.688;10.746;2024-01-30T01:34:34;10.02;;;6.60;;
13163;SDS011;6647;53.688;10.746;2024-01-30T01:35:34;12.30;;;6.50;;
13163;SDS011;6647;53.688;10.746;2024-01-30T01:36:35;6.33;;;5.73;;
13163;SDS011;6647;53.688;10.746;2024-01-30T01:37:35;9.30;;;5.80;;
13163;SDS011;6647;53.688;10.746;2024-01-30T01:38:36;9.48;;;5.82;;
13163;SDS011;6647;53.688;10.746;2024-01-30T01:39:37;7.65;;;5.93;;
13163;SDS011;6647;53.688;10.746;2024-01-30T01:40:37;10.47;;;6.40;;
13163;SDS011;6647;53.688;10.746;2024-01-30T01:41:41;10.15;;;6.82;;
13163;SDS011;6647;53.688;10.746;2024-01-30T01:42:42;8.87;;;6.57;;
13163;SDS011;6647;53.688;10.746;2024-01-30T01:43:43;7.50;;;6.10;;
13163;SDS011;6647;53.688;10.746;2024-01-30T01:44:43;9.40;;;6.37;;
13163;SDS011;6647;53.688;10.746;2024-01-30T01:45:43;9.17;;;6.40;;
13163;SDS011;6647;53.688;10.746;2024-01-30T01:46:44;8.73;;;6.10;;
13163;SDS011;6647;53.688;10.746;2024-01-30T01:47:45;14.87;;;7.03;;
13163;SDS011;6647;53.688;10.746;2024-01-30T01:48:47;7.75;;;6.45;;
13163;SDS011;6647;53.688;10.746;2024-01-30T01:49:48;9.93;;;6.20;;
13163;SDS011;6647;53.688;10.746;2024-01-30T01:50:48;9.40;;;6.43;;
13163;SDS011;6647;53.688;10.746;2024-01-30T01:51:50;9.77;;;6.10;;
13163;SDS011;6647;53.688;10.746;2024-01-30T01:52:52;8.38;;;6.05;;
13163;SDS011;6647;53.688;10.746;2024-01-30T01:53:54;7.85;;;6.63;;
13163;SDS011;6647;53.688;10.746;2024-01-30T01:54:56;8.07;;;6.07;;
13163;SDS011;6647;53.688;10.746;2024-01-30T01:55:57;9.48;;;6.10;;
13163;SDS011;6647;53.688;10.746;2024-01-30T01:56:57;8.87;;;6.50;;
13163;SDS011;6647;53.688;10.746;2024-01-30T01:58:00;9.20;;;6.05;;
13163;SDS011;6647;53.688;10.746;2024-01-30T01:59:06;7.45;;;6.50;;
13163;SDS011;6647;53.688;10.746;2024-01-30T02:00:08;7.32;;;5.65;;
13163;SDS011;6647;53.688;10.746;2024-01-30T02:01:10;8.20;;;5.95;;
13163;SDS011;6647;53.688;10.746;2024-01-30T02:02:11;8.40;;;6.68;;
13163;SDS011;6647;53.688;10.746;2024-01-30T02:03:12;12.93;;;7.00;;
13163;SDS011;6647;53.688;10.746;2024-01-30T02:04:13;9.02;;;6.72;;
13163;SDS011;6647;53.688;10.746;2024-01-30T02:05:14;8.90;;;6.63;;
13163;SDS011;6647;53.688;10.746;2024-01-30T02:06:15;6.45;;;5.82;;
13163;SDS011;6647;53.688;10.746;2024-01-30T02:07:16;7.70;;;6.10;;
13163;SDS011;6647;53.688;10.746;2024-01-30T02:08:16;9.20;;;7.03;;
13163;SDS011;6647;53.688;10.746;2024-01-30T02:09:16;8.67;;;6.17;;
13163;SDS011;6647;53.688;10.746;2024-01-30T02:10:17;8.97;;;6.27;;
13163;SDS011;6647;53.688;10.746;2024-01-30T02:11:17;9.43;;;6.43;;
13163;SDS011;6647;53.688;10.746;2024-01-30T02:12:18;11.43;;;6.53;;
13163;SDS011;6647;53.688;10.746;2024-01-30T02:13:18;7.80;;;5.70;;
13163;SDS011;6647;53.688;10.746;2024-01-30T02:14:20;7.38;;;5.93;;
13163;SDS011;6647;53.688;10.746;2024-01-30T02:15:21;10.60;;;6.57;;
13163;SDS011;6647;53.688;10.746;2024-01-30T02:16:21;9.47;;;6.13;;
13163;SDS011;6647;53.688;10.746;2024-01-30T02:17:21;7.53;;;6.30;;
13163;SDS011;6647;53.688;10.746;2024-01-30T02:18:24;10.18;;;6.25;;
13163;SDS011;6647;53.688;10.746;2024-01-30T02:19:26;8.55;;;6.28;;
13163;SDS011;6647;53.688;10.746;2024-01-30T02:20:26;9.10;;;6.20;;
13163;SDS011;6647;53.688;10.746;2024-01-30T02:21:29;8.63;;;6.18;;
13163;SDS011;6647;53.688;10.746;2024-01-30T02:22:30;8.55;;;6.25;;
13163;SDS011;6647;53.688;10.746;2024-01-30T02:23:34;9.93;;;6.60;;
13163;SDS011;6647;53.688;10.746;2024-01-30T02:24:36;8.32;;;6.10;;
13163;SDS011;6647;53.688;10.746;2024-01-30T02:25:39;10.57;;;6.00;;
13163;SDS011;6647;53.688;10.746;2024-01-30T02:26:44;9.90;;;6.30;;
13163;SDS011;6647;53.688;10.746;2024-01-30T02:27:44;7.50;;;6.20;;
13163;SDS011;6647;53.688;10.746;2024-01-30T02:28:44;12.43;;;7.13;;
13163;SDS011;6647;53.688;10.746;2024-01-30T02:29:44;7.33;;;6.00;;
13163;SDS011;6647;53.688;10.746;2024-01-30T02:30:45;9.10;;;6.07;;
13163;SDS011;6647;53.688;10.746;2024-01-30T02:31:46;7.37;;;5.80;;
13163;SDS011;6647;53.688;10.746;2024-01-30T02:32:46;8.10;;;6.37;;
13163;SDS011;6647;53.688;10.746;2024-01-30T02:33:46;7.67;;;5.40;;
13163;SDS011;6647;53.688;10.746;2024-01-30T02:34:47;11.13;;;7.30;;
13163;SDS011;6647;53.688;10.746;2024-01-30T02:35:47;6.87;;;5.67;;
13163;SDS011;6647;53.688;10.746;2024-01-30T02:36:48;8.70;;;6.23;;
13163;SDS011;6647;53.688;10.746;2024-01-30T02:37:48;8.77;;;5.90;;
13163;SDS011;6647;53.688;10.746;2024-01-30T02:38:48;8.17;;;6.73;;
13163;SDS011;6647;53.688;10.746;2024-01-30T02:39:48;9.60;;;7.17;;
13163;SDS011;6647;53.688;10.746;2024-01-30T02:40:49;10.33;;;6.53;;
13163;SDS011;6647;53.688;10.746;2024-01-30T02:41:51;9.68;;;6.70;;
13163;SDS011;6647;53.688;10.746;2024-01-30T02:42:52;8.55;;;6.00;;
13163;SDS011;6647;53.688;10.746;2024-01-30T02:43:52;9.30;;;6.43;;
13163;SDS011;6647;53.688;10.746;2024-01-30T02:44:53;10.50;;;6.17;;
13163;SDS011;6647;53.688;10.746;2024-01-30T02:45:53;8.77;;;6.83;;
13163;SDS011;6647;53.688;10.746;2024-01-30T02:46:54;8.70;;;6.20;;
13163;SDS011;6647;53.688;10.746;2024-01-30T02:47:56;14.75;;;6.78;;
13163;SDS011;6647;53.688;10.746;2024-01-30T02:48:56;7.63;;;5.80;;
13163;SDS011;6647;53.688;10.746;2024-01-30T02:49:58;7.85;;;6.15;;
13163;SDS011;6647;53.688;10.746;2024-01-30T02:51:00;10.65;;;7.00;;
13163;SDS011;6647;53.688;10.746;2024-01-30T02:52:01;9.52;;;6.70;;
13163;SDS011;6647;53.688;10.746;2024-01-30T02:53:03;8.18;;;6.05;;
13163;SDS011;6647;53.688;10.746;2024-01-30T02:54:05;9.65;;;6.35;;
13163;SDS011;6647;53.688;10.746;2024-01-30T02:55:07;9.85;;;6.82;;
13163;SDS011;6647;53.688;10.746;2024-01-30T02:56:09;9.00;;;6.50;;
13163;SDS011;6647;53.688;10.746;2024-01-30T02:57:10;9.57;;;6.30;;
13163;SDS011;6647;53.688;10.746;2024-01-30T02:58:12;9.35;;;6.63;;
13163;SDS011;6647;53.688;10.746;2024-01-30T02:59:12;9.03;;;7.20;;
13163;SDS011;6647;53.688;10.746;2024-01-30T03:00:12;8.50;;;6.60;;
13163;SDS011;6647;53.688;10.746;2024-01-30T03:01:13;8.90;;;6.60;;
13163;SDS011;6647;53.688;10.746;2024-01-30T03:02:13;9.70;;;7.17;;
13163;SDS011;6647;53.688;10.746;2024-01-30T03:03:13;11.30;;;7.37;;
13163;SDS011;6647;53.688;10.746;2024-01-30T03:04:14;10.30;;;7.77;;
13163;SDS011;6647;53.688;10.746;2024-01-30T03:05:14;10.73;;;7.37;;
13163;SDS011;6647;53.688;10.746;2024-01-30T03:06:14;11.87;;;7.70;;
13163;SDS011;6647;53.688;10.746;2024-01-30T03:07:17;11.27;;;7.57;;
13163;SDS011;6647;53.688;10.746;2024-01-30T03:08:17;9.97;;;7.80;;
13163;SDS011;6647;53.688;10.746;2024-01-30T03:09:18;10.23;;;7.20;;
13163;SDS011;6647;53.688;10.746;2024-01-30T03:10:18;8.70;;;7.43;;
13163;SDS011;6647;53.688;10.746;2024-01-30T03:11:18;8.90;;;7.23;;
13163;SDS011;6647;53.688;10.746;2024-01-30T03:12:19;10.43;;;7.70;;
13163;SDS011;6647;53.688;10.746;2024-01-30T03:13:19;11.17;;;8.30;;
13163;SDS011;6647;53.688;10.746;2024-01-30T03:14:19;10.20;;;7.77;;
13163;SDS011;6647;53.688;10.746;2024-01-30T03:15:21;9.07;;;7.32;;
13163;SDS011;6647;53.688;10.746;2024-01-30T03:16:21;10.40;;;7.50;;
13163;SDS011;6647;53.688;10.746;2024-01-30T03:17:23;14.05;;;8.55;;
13163;SDS011;6647;53.688;10.746;2024-01-30T03:18:24;9.82;;;7.28;;
13163;SDS011;6647;53.688;10.746;2024-01-30T03:19:25;7.90;;;7.10;;
13163;SDS011;6647;53.688;10.746;2024-01-30T03:20:25;9.33;;;7.83;;
13163;SDS011;6647;53.688;10.746;2024-01-30T03:21:26;9.80;;;7.67;;
13163;SDS011;6647;53.688;10.746;2024-01-30T03:22:26;11.30;;;7.90;;
13163;SDS011;6647;53.688;10.746;2024-01-30T03:23:27;12.07;;;7.87;;
13163;SDS011;6647;53.688;10.746;2024-01-30T03:24:27;7.90;;;7.10;;
13163;SDS011;6647;53.688;10.746;2024-01-30T03:25:27;14.83;;;8.13;;
13163;SDS011;6647;53.688;10.746;2024-01-30T03:26:28;9.40;;;7.10;;
13163;SDS011;6647;53.688;10.746;2024-01-30T03:27:28;10.30;;;7.40;;
13163;SDS011;6647;53.688;10.746;2024-01-30T03:28:28;10.90;;;8.07;;
13163;SDS011;6647;53.688;10.746;2024-01-30T03:29:29;12.80;;;7.97;;
13163;SDS011;6647;53.688;10.746;2024-01-30T03:30:29;10.93;;;8.00;;
13163;SDS011;6647;53.688;10.746;2024-01-30T03:31:30;12.10;;;8.50;;
13163;SDS011;6647;53.688;10.746;2024-01-30T03:32:31;10.93;;;7.70;;
13163;SDS011;6647;53.688;10.746;2024-01-30T03:33:31;10.63;;;7.63;;
13163;SDS011;6647;53.688;10.746;2024-01-30T03:34:31;11.37;;;8.10;;
13163;SDS011;6647;53.688;10.746;2024-01-30T03:35:31;11.57;;;8.13;;
13163;SDS011;6647;53.688;10.746;2024-01-30T03:36:32;10.17;;;7.17;;
13163;SDS011;6647;53.688;10.746;2024-01-30T03:37:34;9.30;;;8.02;;
13163;SDS011;6647;53.688;10.746;2024-01-30T03:38:35;11.43;;;8.40;;
13163;SDS011;6647;53.688;10.746;2024-01-30T03:39:37;9.05;;;8.10;;
13163;SDS011;6647;53.688;10.746;2024-01-30T03:40:37;12.60;;;7.90;;
13163;SDS011;6647;53.688;10.746;2024-01-30T03:41:37;12.83;;;8.07;;
13163;SDS011;6647;53.688;10.746;2024-01-30T03:42:40;14.40;;;8.70;;
13163;SDS011;6647;53.688;10.746;2024-01-30T03:43:41;12.43;;;8.35;;
13163;SDS011;6647;53.688;10.746;2024-01-30T03:44:42;13.70;;;8.07;;
13163;SDS011;6647;53.688;10.746;2024-01-30T03:45:42;12.47;;;8.00;;
13163;SDS011;6647;53.688;10.746;2024-01-30T03:46:43;14.40;;;7.80;;
13163;SDS011;6647;53.688;10.746;2024-01-30T03:47:43;13.33;;;8.67;;
13163;SDS011;6647;53.688;10.746;2024-01-30T03:48:44;10.80;;;7.77;;
13163;SDS011;6647;53.688;10.746;2024-01-30T03:49:45;12.02;;;8.93;;
13163;SDS011;6647;53.688;10.746;2024-01-30T03:50:45;13.43;;;8.63;;
13163;SDS011;6647;53.688;10.746;2024-01-30T03:51:46;11.05;;;8.70;;
13163;SDS011;6647;53.688;10.746;2024-01-30T03:52:47;15.63;;;8.82;;
13163;SDS011;6647;53.688;10.746;2024-01-30T03:53:47;10.97;;;8.67;;
13163;SDS011;6647;53.688;10.746;2024-01-30T03:54:48;15.07;;;8.07;;
13163;SDS011;6647;53.688;10.746;2024-01-30T03:55:48;9.80;;;7.90;;
13163;SDS011;6647;53.688;10.746;2024-01-30T03:56:48;15.90;;;8.07;;
13163;SDS011;6647;53.688;10.746;2024-01-30T03:57:48;11.83;;;9.00;;
13163;SDS011;6647;53.688;10.746;2024-01-30T03:58:49;12.30;;;8.27;;
13163;SDS011;6647;53.688;10.746;2024-01-30T03:59:49;14.80;;;9.33;;
13163;SDS011;6647;53.688;10.746;2024-01-30T04:00:51;12.90;;;9.20;;
13163;SDS011;6647;53.688;10.746;2024-01-30T04:01:54;15.95;;;9.15;;
13163;SDS011;6647;53.688;10.746;2024-01-30T04:02:54;12.02;;;8.60;;
13163;SDS011;6647;53.688;10.746;2024-01-30T04:03:56;14.73;;;9.00;;
13163;SDS011;6647;53.688;10.746;2024-01-30T04:04:58;15.90;;;8.77;;
13163;SDS011;6647;53.688;10.746;2024-01-30T04:05:59;14.00;;;10.13;;
13163;SDS011;6647;53.688;10.746;2024-01-30T04:06:59;12.07;;;9.07;;
13163;SDS011;6647;53.688;10.746;2024-01-30T04:07:59;12.07;;;9.20;;
13163;SDS011;6647;53.688;10.746;2024-01-30T04:09:00;12.48;;;8.80;;
13163;SDS011;6647;53.688;10.746;2024-01-30T04:10:02;11.35;;;9.05;;
13163;SDS011;6647;53.688;10.746;2024-01-30T04:11:06;12.27;;;9.60;;
13163;SDS011;6647;53.688;10.746;2024-01-30T04:12:06;18.77;;;9.17;;
13163;SDS011;6647;53.688;10.746;2024-01-30T04:13:07;13.38;;;9.20;;
13163;SDS011;6647;53.688;10.746;2024-01-30T04:14:08;12.17;;;8.90;;
13163;SDS011;6647;53.688;10.746;2024-01-30T04:15:08;15.40;;;9.03;;
13163;SDS011;6647;53.688;10.746;2024-01-30T04:16:18;11.00;;;8.80;;
13163;SDS011;6647;53.688;10.746;2024-01-30T04:17:20;12.23;;;9.27;;
13163;SDS011;6647;53.688;10.746;2024-01-30T04:18:21;13.93;;;9.77;;
13163;SDS011;6647;53.688;10.746;2024-01-30T04:19:22;11.90;;;9.15;;
13163;SDS011;6647;53.688;10.746;2024-01-30T04:20:23;13.90;;;9.97;;
13163;SDS011;6647;53.688;10.746;2024-01-30T04:21:25;11.75;;;9.40;;
13163;SDS011;6647;53.688;10.746;2024-01-30T04:22:26;17.03;;;9.47;;
13163;SDS011;6647;53.688;10.746;2024-01-30T04:23:26;12.70;;;10.00;;
13163;SDS011;6647;53.688;10.746;2024-01-30T04:24:26;11.73;;;8.50;;
13163;SDS011;6647;53.688;10.746;2024-01-30T04:25:27;13.25;;;9.90;;
13163;SDS011;6647;53.688;10.746;2024-01-30T04:26:28;16.77;;;8.77;;
13163;SDS011;6647;53.688;10.746;2024-01-30T04:27:28;14.00;;;9.87;;
13163;SDS011;6647;53.688;10.746;2024-01-30T04:28:29;15.23;;;9.75;;
13163;SDS011;6647;53.688;10.746;2024-01-30T04:29:31;16.13;;;9.93;;
13163;SDS011;6647;53.688;10.746;2024-01-30T04:30:33;15.65;;;10.02;;
13163;SDS011;6647;53.688;10.746;2024-01-30T04:31:38;14.50;;;9.50;;
13163;SDS011;6647;53.688;10.746;2024-01-30T04:32:38;18.77;;;10.60;;
13163;SDS011;6647;53.688;10.746;2024-01-30T04:33:40;15.23;;;8.40;;
13163;SDS011;6647;53.688;10.746;2024-01-30T04:34:41;11.68;;;8.57;;
13163;SDS011;6647;53.688;10.746;2024-01-30T04:35:42;11.13;;;9.50;;
13163;SDS011;6647;53.688;10.746;2024-01-30T04:36:44;15.33;;;9.40;;
13163;SDS011;6647;53.688;10.746;2024-01-30T04:37:45;14.13;;;9.32;;
13163;SDS011;6647;53.688;10.746;2024-01-30T04:38:45;17.50;;;10.03;;
13163;SDS011;6647;53.688;10.746;2024-01-30T04:39:45;14.37;;;9.73;;
13163;SDS011;6647;53.688;10.746;2024-01-30T04:40:46;14.43;;;10.10;;
13163;SDS011;6647;53.688;10.746;2024-01-30T04:41:46;14.33;;;9.67;;
13163;SDS011;6647;53.688;10.746;2024-01-30T04:42:46;13.27;;;10.60;;
13163;SDS011;6647;53.688;10.746;2024-01-30T04:43:46;12.60;;;9.63;;
13163;SDS011;6647;53.688;10.746;2024-01-30T04:44:47;14.03;;;8.40;;
13163;SDS011;6647;53.688;10.746;2024-01-30T04:45:47;12.17;;;9.13;;
13163;SDS011;6647;53.688;10.746;2024-01-30T04:46:48;14.57;;;10.20;;
13163;SDS011;6647;53.688;10.746;2024-01-30T04:47:49;13.57;;;10.30;;
13163;SDS011;6647;53.688;10.746;2024-01-30T04:48:49;13.83;;;9.60;;
13163;SDS011;6647;53.688;10.746;2024-01-30T04:49:51;14.48;;;9.80;;
13163;SDS011;6647;53.688;10.746;2024-01-30T04:50:53;15.23;;;9.80;;
13163;SDS011;6647;53.688;10.746;2024-01-30T04:51:55;12.18;;;9.80;;
13163;SDS011;6647;53.688;10.746;2024-01-30T04:52:57;14.07;;;10.30;;
13163;SDS011;6647;53.688;10.746;2024-01-30T04:53:59;13.32;;;9.38;;
13163;SDS011;6647;53.688;10.746;2024-01-30T04:55:01;16.45;;;10.45;;
13163;SDS011;6647;53.688;10.746;2024-01-30T04:56:04;13.02;;;9.65;;
13163;SDS011;6647;53.688;10.746;2024-01-30T04:57:06;14.73;;;10.23;;
13163;SDS011;6647;53.688;10.746;2024-01-30T04:58:10;18.77;;;10.35;;
13163;SDS011;6647;53.688;10.746;2024-01-30T04:59:12;14.45;;;9.30;;
13163;SDS011;6647;53.688;10.746;2024-01-30T05:00:12;14.03;;;10.10;;
13163;SDS011;6647;53.688;10.746;2024-01-30T05:01:16;17.30;;;9.80;;
13163;SDS011;6647;53.688;10.746;2024-01-30T05:02:17;17.70;;;9.35;;
13163;SDS011;6647;53.688;10.746;2024-01-30T05:03:18;15.10;;;10.20;;
13163;SDS011;6647;53.688;10.746;2024-01-30T05:04:19;13.95;;;9.48;;
13163;SDS011;6647;53.688;10.746;2024-01-30T05:05:20;15.10;;;10.40;;
13163;SDS011;6647;53.688;10.746;2024-01-30T05:06:25;21.88;;;10.70;;
13163;SDS011;6647;53.688;10.746;2024-01-30T05:07:27;15.45;;;9.88;;
13163;SDS011;6647;53.688;10.746;2024-01-30T05:08:29;15.73;;;10.18;;
13163;SDS011;6647;53.688;10.746;2024-01-30T05:09:31;16.58;;;10.57;;
13163;SDS011;6647;53.688;10.746;2024-01-30T05:10:33;16.73;;;9.68;;
13163;SDS011;6647;53.688;10.746;2024-01-30T05:11:39;14.63;;;10.02;;
13163;SDS011;6647;53.688;10.746;2024-01-30T05:12:40;15.73;;;10.27;;
13163;SDS011;6647;53.688;10.746;2024-01-30T05:13:42;15.95;;;10.18;;
13163;SDS011;6647;53.688;10.746;2024-01-30T05:14:42;11.40;;;9.23;;
13163;SDS011;6647;53.688;10.746;2024-01-30T05:15:43;12.03;;;9.90;;
13163;SDS011;6647;53.688;10.746;2024-01-30T05:16:43;19.37;;;11.13;;
13163;SDS011;6647;53.688;10.746;2024-01-30T05:17:46;16.95;;;10.15;;
13163;SDS011;6647;53.688;10.746;2024-01-30T05:18:47;12.77;;;9.43;;
13163;SDS011;6647;53.688;10.746;2024-01-30T05:19:47;17.73;;;10.10;;
13163;SDS011;6647;53.688;10.746;2024-01-30T05:20:47;17.20;;;10.40;;
13163;SDS011;6647;53.688;10.746;2024-01-30T05:21:47;13.10;;;9.80;;
13163;SDS011;6647;53.688;10.746;2024-01-30T05:22:48;14.30;;;10.40;;
13163;SDS011;6647;53.688;10.746;2024-01-30T05:23:48;13.70;;;9.87;;
13163;SDS011;6647;53.688;10.746;2024-01-30T05:24:48;15.00;;;9.80;;
13163;SDS011;6647;53.688;10.746;2024-01-30T05:25:48;15.50;;;10.93;;
13163;SDS011;6647;53.688;10.746;2024-01-30T05:26:50;14.02;;;10.85;;
13163;SDS011;6647;53.688;10.746;2024-01-30T05:27:51;12.38;;;10.02;;
13163;SDS011;6647;53.688;10.746;2024-01-30T05:28:52;18.10;;;10.00;;
13163;SDS011;6647;53.688;10.746;2024-01-30T05:29:52;13.73;;;10.53;;
13163;SDS011;6647;53.688;10.746;2024-01-30T05:30:54;14.90;;;10.93;;
13163;SDS011;6647;53.688;10.746;2024-01-30T05:31:56;14.60;;;10.35;;
13163;SDS011;6647;53.688;10.746;2024-01-30T05:32:58;13.02;;;10.43;;
13163;SDS011;6647;53.688;10.746;2024-01-30T05:33:59;19.75;;;9.75;;
13163;SDS011;6647;53.688;10.746;2024-01-30T05:35:01;13.88;;;9.52;;
13163;SDS011;6647;53.688;10.746;2024-01-30T05:36:03;17.05;;;10.65;;
13163;SDS011;6647;53.688;10.746;2024-01-30T05:37:04;15.53;;;10.93;;
13163;SDS011;6647;53.688;10.746;2024-01-30T05:38:05;15.52;;;10.65;;
13163;SDS011;6647;53.688;10.746;2024-01-30T05:39:07;16.52;;;10.05;;
13163;SDS011;6647;53.688;10.746;2024-01-30T05:40:09;13.32;;;10.70;;
13163;SDS011;6647;53.688;10.746;2024-01-30T05:41:11;15.95;;;10.15;;
13163;SDS011;6647;53.688;10.746;2024-01-30T05:42:12;15.23;;;10.70;;
13163;SDS011;6647;53.688;10.746;2024-01-30T05:43:12;13.43;;;9.50;;
13163;SDS011;6647;53.688;10.746;2024-01-30T05:44:13;13.97;;;10.10;;
13163;SDS011;6647;53.688;10.746;2024-01-30T05:45:13;16.87;;;10.53;;
13163;SDS011;6647;53.688;10.746;2024-01-30T05:46:13;15.73;;;10.40;;
13163;SDS011;6647;53.688;10.746;2024-01-30T05:47:14;15.33;;;10.50;;
13163;SDS011;6647;53.688;10.746;2024-01-30T05:48:14;13.87;;;9.60;;
13163;SDS011;6647;53.688;10.746;2024-01-30T05:49:14;13.87;;;10.67;;
13163;SDS011;6647;53.688;10.746;2024-01-30T05:50:14;14.97;;;10.17;;
13163;SDS011;6647;53.688;10.746;2024-01-30T05:51:15;13.77;;;9.70;;
13163;SDS011;6647;53.688;10.746;2024-01-30T05:52:15;15.93;;;9.43;;
13163;SDS011;6647;53.688;10.746;2024-01-30T05:53:16;14.48;;;11.05;;
13163;SDS011;6647;53.688;10.746;2024-01-30T05:54:16;12.80;;;10.00;;
13163;SDS011;6647;53.688;10.746;2024-01-30T05:55:16;12.33;;;9.80;;
13163;SDS011;6647;53.688;10.746;2024-01-30T05:56:17;13.27;;;10.03;;
13163;SDS011;6647;53.688;10.746;2024-01-30T05:57:17;14.63;;;11.07;;
13163;SDS011;6647;53.688;10.746;2024-01-30T05:58:17;12.13;;;10.57;;
13163;SDS011;6647;53.688;10.746;2024-01-30T05:59:18;22.70;;;9.90;;
13163;SDS011;6647;53.688;10.746;2024-01-30T06:00:18;15.00;;;11.30;;
13163;SDS011;6647;53.688;10.746;2024-01-30T06:01:18;18.47;;;10.30;;
13163;SDS011;6647;53.688;10.746;2024-01-30T06:02:20;18.55;;;11.77;;
13163;SDS011;6647;53.688;10.746;2024-01-30T06:03:22;18.60;;;11.05;;
13163;SDS011;6647;53.688;10.746;2024-01-30T06:04:22;20.27;;;10.73;;